x

Ilm3 - 27 Miles Se Of Wrightsville Beach, Nc (41037) Weather Station

5:08 - Mon 23rd Jan 2017 All times are EST. -5 hours from GMT.

  • Wind
    20mph, 27mph gusts
  • Sea Temp 68°f
  • Aire Temp 58°f
  • Sea Pressure 988.5mb
  • Ilm3 - 27 Miles Se Of Wrightsville Beach, Nc
  • Ilm3 - 27 Miles Se Of Wrightsville Beach, Nc

More Historic Weather Station data

Upgrade to MSW Pro to gain access to the past 30 days of data for over 8000 Wavebouys and Weather Stations around the globe.

Join Pro

Comparision Forecast

View Surf forecast
   
lun 01/23 5:08 20 27 mph 988.5mb 68f 58f
4:08 13 18 mph 988mb 68f 59f
3:08 16 22 mph 987.9mb 68f 59f
2:08 7 11 mph 987.6mb 68f 62f
1:08 2 7 mph 988.2mb 67f 63f
12:08 2 9 mph 990.3mb 67f 62f
11:08 7 11 mph 990.3mb 66f 61f
10:08 11 16 mph 991.2mb 66f 61f
9:08 16 22 mph 992.2mb 66f 61f
8:08 22 29 mph 991.4mb 66f 60f
7:08 22 34 mph 990.5mb 67f 60f
6:08 27 36 mph 989.9mb 67f 61f
5:08 27 36 mph 989.4mb 67f 63f
4:08 22 34 mph 989.2mb 68f 66f
3:08 22 31 mph 989.7mb 68f 68f
2:08 25 31 mph 990.2mb 67f 68f
1:08 25 34 mph 991.5mb 67f 69f
12:08 18 25 mph 993.9mb 67f 68f
dom 01/22 11:08 16 25 mph 995.9mb 66f 68f
10:08 22 29 mph 995.2mb 66f 69f
9:08 25 31 mph 996.4mb 65f 68f
8:08 9 13 mph 997.4mb 65f 65f
7:08 9 13 mph 1000.2mb 65f 65f
6:08 9 13 mph 998.8mb 66f 65f
5:08 13 18 mph 1001mb 66f 65f
4:08 13 20 mph 999.8mb 66f 67f
3:08 25 36 mph 998.6mb 66f 66f
2:08 13 18 mph 999.8mb 67f 65f
1:08 16 20 mph 1000mb 67f 65f
12:08 13 18 mph 1001.2mb 67f 62f
11:08 9 16 mph 1005.1mb 67f 61f
10:08 18 25 mph 1003.8mb 67f 62f
9:08 9 13 mph 1005.2mb 67f 61f
8:08 18 25 mph 1006.3mb 67f 62f
7:08 13 20 mph 1004.8mb 67f 62f
6:08 16 22 mph 1005.2mb 67f 62f
5:08 16 22 mph 1004.6mb 67f 63f
4:08 18 27 mph 1004.5mb 68f 63f
3:08 18 25 mph 1004.9mb 69f 63f
2:08 18 25 mph 1004.5mb 69f 63f
1:08 18 25 mph 1004.2mb 69f 66f
12:08 16 20 mph 1004mb 70f 66f
sáb 01/21 11:08 22 29 mph 1003.6mb 71f 69f
10:08 13 20 mph 1005.8mb 71f 70f
9:08 11 22 mph 1006.3mb 71f 71f
8:08 13 18 mph 1006.8mb 72f 71f
7:08 13 20 mph 1007.3mb 72f 71f
6:08 16 22 mph 1007.4mb 72f 72f
5:08 16 22 mph 1007.6mb 72f 72f
4:08 16 22 mph 1008.1mb 72f 71f
3:08 13 20 mph 1008.3mb 72f 71f
2:08 13 20 mph 1009.1mb 72f 70f
1:08 16 22 mph 1009.4mb 72f 69f
12:08 13 18 mph 1011.7mb 72f 69f
11:08 11 13 mph 1012.9mb 72f 68f
10:08 7 11 mph 1013.3mb 72f 67f
9:08 7 11 mph 1013.2mb 72f 67f
8:08 2 7 mph 1013mb 72f 66f
7:08 4 9 mph 1012.4mb 72f 66f
6:08 7 11 mph 1012.4mb 72f 66f
5:08 4 9 mph 1012.3mb 72f 65f
4:08 4 9 mph 1012.6mb 72f 64f
3:08 9 13 mph 1012.9mb 72f 65f
2:08 9 11 mph 1012.5mb 72f 67f
1:08 11 13 mph 1011.9mb 72f 66f
12:08 11 16 mph 1012.4mb 71f 66f
vie 01/20 11:08 11 16 mph 1012.7mb 71f 66f
10:08 13 20 mph 1012.1mb 71f 65f
9:08 13 18 mph 1011.8mb 71f 66f
8:08 13 20 mph 1011.3mb 71f 67f
7:08 16 22 mph 1011mb 71f 67f
6:08 13 18 mph 1010.5mb 71f 68f
5:08 13 18 mph 1010.3mb 71f 69f
4:08 11 16 mph 1010mb 71f 70f
3:08 11 16 mph 1010.4mb 71f 69f
2:08 13 18 mph 1010.3mb 71f 70f
1:08 13 18 mph 1010.6mb 71f 70f
12:08 13 18 mph 1011.5mb 71f 70f
11:08 13 18 mph 1012.4mb 71f 70f
10:08 11 16 mph 1012.7mb 71f 72f
9:08 13 20 mph 1012.5mb 71f 71f
8:08 13 18 mph 1012.9mb 71f 70f
7:08 11 18 mph 1012.6mb 71f 69f
6:08 13 20 mph 1012.8mb 71f 66f
5:08 11 16 mph 1013mb 71f 65f
4:08 11 18 mph 1013.4mb 71f 65f
3:08 9 13 mph 1014.4mb 71f 64f
2:08 7 11 mph 1015mb 71f 64f
1:08 7 13 mph 1014.6mb 71f 64f
12:08 7 16 mph 1015.3mb 71f 63f